PWSweather.com
Personal Weather Stations
Station Observations
PXYWEWX1
West End, Punxsutawney, PA 15767

West EndPunxsutawney, PA 15767

Lat: 40.9447, Lon: -78.9905

Elevation: 1273

Station Type: Davis Vantage Pro 2 24 Hour FARS

http://www.punxsutawneyweather.com

Latest ConditionsUpdated 5:15:00 AM EST Thursday, Nov 21, 2019
Currently Today's Max Today's Min Today's Average
Temperature 25.2°F-3.8°C 30.2°F-1.0°C 25.2°F-3.8°C 27.2°F-2.7°C
Dew Point 23.5°F-4.7°C 27.3°F-2.6°C 23.2°F-4.9°C 25.3°F-3.7°C
Winds Calm Calm 0.7 mph -1.1 kmh - - 0.1 mph 0.2 kmh
Wind Gusts -- 2.0 mph3.2 kmh - -
Humidity 93% 93% 89% 92%
Pressure 30.31 in1026.4 mb 30.32 in1026.8 mb 30.30 in1026.1 mb -
Hour Temp Dew Point Humidity Winds Wind Gusts Pressure Precip Precip Rate Daily Precip Total
05:15 AM 25.2°F-3.8°C 23.5°F-4.7°C 93% Calm Calm -- 30.31 in1026.4 mb 0.00 in0.0 mm 0.00 in0.0 mm 0.00 in0.0 mm
05:00 AM 25.2°F-3.8°C 23.2°F-4.9°C 92% Calm Calm 1.0 mph1.6 kmh 30.31 in1026.4 mb 0.00 in0.0 mm 0.00 in0.0 mm 0.00 in0.0 mm
04:45 AM 25.4°F-3.7°C 23.7°F-4.6°C 93% Calm Calm 1.0 mph1.6 kmh 30.31 in1026.4 mb 0.00 in0.0 mm 0.00 in0.0 mm 0.00 in0.0 mm
04:30 AM 25.8°F-3.4°C 24.1°F-4.4°C 93% Calm Calm 1.0 mph1.6 kmh 30.30 in1026.1 mb 0.00 in0.0 mm 0.00 in0.0 mm 0.00 in0.0 mm
04:15 AM 26.0°F-3.3°C 24.3°F-4.3°C 93% 0.2 mph 0.3 kmh -- 30.30 in1026.1 mb 0.00 in0.0 mm 0.00 in0.0 mm 0.00 in0.0 mm
04:00 AM 26.0°F-3.3°C 24.3°F-4.3°C 93% Calm Calm 2.0 mph3.2 kmh 30.31 in1026.4 mb 0.00 in0.0 mm 0.00 in0.0 mm 0.00 in0.0 mm
03:45 AM 26.3°F-3.2°C 24.6°F-4.1°C 93% Calm Calm -- 30.30 in1026.1 mb 0.00 in0.0 mm 0.00 in0.0 mm 0.00 in0.0 mm
03:30 AM 26.3°F-3.2°C 24.6°F-4.1°C 93% Calm Calm 2.0 mph3.2 kmh 30.30 in1026.1 mb 0.00 in0.0 mm 0.00 in0.0 mm 0.00 in0.0 mm
03:15 AM 26.4°F-3.1°C 24.7°F-4.1°C 93% Calm Calm -- 30.31 in1026.4 mb 0.00 in0.0 mm 0.00 in0.0 mm 0.00 in0.0 mm
03:00 AM 26.5°F-3.1°C 24.5°F-4.2°C 92% Calm Calm 2.0 mph3.2 kmh 30.31 in1026.4 mb 0.00 in0.0 mm 0.00 in0.0 mm 0.00 in0.0 mm
02:45 AM 26.7°F-2.9°C 24.9°F-3.9°C 93% Calm Calm -- 30.31 in1026.4 mb 0.00 in0.0 mm 0.00 in0.0 mm 0.00 in0.0 mm
02:30 AM 26.9°F-2.8°C 24.9°F-3.9°C 92% Calm Calm -- 30.31 in1026.4 mb 0.00 in0.0 mm 0.00 in0.0 mm 0.00 in0.0 mm
02:15 AM 27.5°F-2.5°C 25.5°F-3.6°C 92% Calm Calm -- 30.32 in1026.8 mb 0.00 in0.0 mm 0.00 in0.0 mm 0.00 in0.0 mm
02:00 AM 27.8°F-2.3°C 25.8°F-3.4°C 92% Calm Calm -- 30.32 in1026.8 mb 0.00 in0.0 mm 0.00 in0.0 mm 0.00 in0.0 mm
01:45 AM 27.9°F-2.3°C 25.9°F-3.4°C 92% 0.7 mph WNW1.1 kmh WNW 1.0 mph1.6 kmh 30.31 in1026.4 mb 0.00 in0.0 mm 0.00 in0.0 mm 0.00 in0.0 mm
01:30 AM 27.9°F-2.3°C 25.9°F-3.4°C 92% 0.5 mph NW0.8 kmh NW 1.0 mph1.6 kmh 30.31 in1026.4 mb 0.00 in0.0 mm 0.00 in0.0 mm 0.00 in0.0 mm
01:15 AM 28.4°F-2.0°C 26.4°F-3.1°C 92% Calm Calm -- 30.31 in1026.4 mb 0.00 in0.0 mm 0.00 in0.0 mm 0.00 in0.0 mm
01:00 AM 28.9°F-1.7°C 26.9°F-2.8°C 92% Calm Calm 1.0 mph1.6 kmh 30.30 in1026.1 mb 0.00 in0.0 mm 0.00 in0.0 mm 0.00 in0.0 mm
12:45 AM 28.9°F-1.7°C 26.6°F-3.0°C 91% Calm Calm 1.0 mph1.6 kmh 30.31 in1026.4 mb 0.00 in0.0 mm 0.00 in0.0 mm 0.00 in0.0 mm
12:30 AM 29.2°F-1.6°C 26.9°F-2.8°C 91% Calm Calm -- 30.31 in1026.4 mb 0.00 in0.0 mm 0.00 in0.0 mm 0.00 in0.0 mm
12:15 AM 29.9°F-1.2°C 27.3°F-2.6°C 90% Calm Calm -- 30.32 in1026.8 mb 0.00 in0.0 mm 0.00 in0.0 mm 0.00 in0.0 mm
12:00 AM 30.2°F-1.0°C 27.3°F-2.6°C 89% Calm Calm 2.0 mph3.2 kmh 30.32 in1026.8 mb 0.00 in0.0 mm 0.00 in0.0 mm 0.00 in0.0 mm